Impacts TAF Board INFO
FOR SITUATIONAL AWARENESS. NOT TO BE USED FOR FLIGHT PLANNING PURPOSES.
IDs:

KPHX - Phoenix/Sky Harbor, AZ, US

Issued at 0520 UTC 17 Dec 2017
Updated at 0805 UTC 17 Dec 2017
Potential Impact None Slight Moderate High
Time<<18/09Z 18/10Z 18/11Z 18/12Z 18/13Z 18/14Z 18/15Z 18/16Z 18/17Z 18/18Z 18/19Z 18/20Z 18/21Z
Type PRVL PRVL PRVL
VIS >6 >6 >6
CIG 80 80 80
Cover BKN BKN BKN
FltCat VFR VFR VFR
WX -- -- --
WDir VRB VRB VRB
WSpd 4 4 4
WGst -- -- --

Raw TAF
KPHX 170520Z 1706/1812 10005KT P6SM SCT120 OVC200
  FM171300 08010KT P6SM VCSH SCT050 OVC080
  TEMPO 1713/1715 36010KT -TSRA BKN050 OVC070CB
  FM172100 15010KT P6SM VCSH BKN060
  FM180100 VRB04KT P6SM SCT060 BKN080


METAR Board
Radar Display
Forecast Discussion

FOR SITUATIONAL AWARENESS. NOT TO BE USED FOR FLIGHT PLANNING PURPOSES.